createdAt,value
2022-12-26T00:00:26.875Z,100.00
2022-12-26T00:02:53.352Z,100.00
2022-12-26T00:05:19.799Z,100.00
2022-12-26T00:07:46.772Z,100.00
2022-12-26T00:10:13.206Z,100.00
2022-12-26T00:12:39.681Z,99.89
2022-12-26T00:15:06.534Z,99.29
2022-12-26T00:17:33.014Z,99.67
2022-12-26T00:19:59.410Z,98.72
2022-12-26T00:22:25.806Z,99.36
2022-12-26T00:24:52.192Z,99.02
2022-12-26T00:27:18.562Z,99.06
2022-12-26T00:29:44.970Z,99.10
2022-12-26T00:32:11.344Z,99.45
2022-12-26T00:34:38.154Z,99.07
2022-12-26T00:37:04.557Z,99.07
2022-12-26T00:39:31.033Z,99.33
2022-12-26T00:41:57.391Z,99.48
2022-12-26T00:44:23.771Z,99.67
2022-12-26T00:46:50.229Z,99.67
2022-12-26T00:49:16.662Z,99.41
2022-12-26T00:51:43.107Z,99.45
2022-12-26T00:54:09.493Z,99.77
2022-12-26T00:56:35.907Z,99.77
2022-12-26T00:59:02.329Z,99.83
2022-12-26T01:01:31.133Z,99.72
2022-12-26T01:03:58.705Z,99.96
2022-12-26T01:06:25.723Z,99.61
2022-12-26T01:08:54.397Z,100.00
2022-12-26T01:11:40.256Z,100.00
2022-12-26T01:14:13.551Z,100.00
2022-12-26T01:16:41.741Z,99.93
2022-12-26T01:19:09.076Z,99.88
2022-12-26T01:21:36.239Z,99.74
2022-12-26T01:24:03.532Z,99.67
2022-12-26T01:26:29.941Z,99.30
2022-12-26T01:28:56.365Z,99.40
2022-12-26T01:31:23.325Z,99.49
2022-12-26T01:33:50.109Z,99.17
2022-12-26T01:36:17.502Z,99.15
2022-12-26T01:38:44.835Z,99.30
2022-12-26T01:41:17.842Z,99.47
2022-12-26T01:44:02.401Z,99.56
2022-12-26T01:46:35.694Z,99.62
2022-12-26T01:49:09.298Z,99.64
2022-12-26T01:51:41.377Z,99.72
2022-12-26T01:54:39.774Z,99.42
2022-12-26T01:56:57.955Z,99.17
2022-12-26T01:59:28.752Z,98.94
2022-12-26T02:01:55.717Z,99.10
2022-12-26T02:04:45.845Z,98.92
2022-12-26T02:07:12.363Z,99.09
2022-12-26T02:09:38.929Z,99.22
2022-12-26T02:12:35.105Z,99.07
2022-12-26T02:15:02.754Z,99.12
2022-12-26T02:17:29.499Z,98.79
2022-12-26T02:20:17.246Z,98.97
2022-12-26T02:23:08.504Z,98.92
2022-12-26T02:25:55.664Z,99.08
2022-12-26T02:28:51.780Z,98.91
2022-12-26T02:31:46.677Z,99.42
2022-12-26T02:34:23.089Z,99.07
2022-12-26T02:37:08.516Z,99.19
2022-12-26T02:39:46.804Z,99.17
2022-12-26T02:42:23.762Z,99.52
2022-12-26T02:45:31.318Z,99.56
2022-12-26T02:48:29.592Z,99.71
2022-12-26T02:51:35.121Z,99.35
2022-12-26T02:54:35.891Z,99.75
2022-12-26T02:57:44.082Z,99.25
2022-12-26T03:00:34.991Z,98.95
2022-12-26T03:03:26.575Z,99.15
2022-12-26T03:06:33.842Z,98.54
2022-12-26T03:09:34.117Z,98.63
2022-12-26T03:12:25.244Z,98.42
2022-12-26T03:14:59.290Z,98.42
2022-12-26T03:17:33.640Z,98.53
2022-12-26T03:20:09.009Z,98.12
2022-12-26T03:22:59.823Z,97.79
2022-12-26T03:25:59.329Z,97.87
2022-12-26T03:28:26.363Z,97.83
2022-12-26T03:30:57.583Z,97.62
2022-12-26T03:33:46.632Z,97.49
2022-12-26T03:36:22.170Z,97.62
2022-12-26T03:39:19.612Z,97.19
2022-12-26T03:42:32.198Z,96.47
2022-12-26T03:45:28.300Z,96.48
2022-12-26T03:48:49.246Z,95.69
2022-12-26T03:51:50.120Z,94.89
2022-12-26T03:54:45.017Z,94.87
2022-12-26T03:57:33.847Z,94.65
2022-12-26T04:00:26.832Z,94.62
2022-12-26T04:03:17.416Z,95.20
2022-12-26T04:06:06.180Z,95.04
2022-12-26T04:09:12.863Z,94.95
2022-12-26T04:12:01.824Z,95.17
2022-12-26T04:15:27.636Z,95.25
2022-12-26T04:18:26.984Z,94.91
2022-12-26T04:21:35.830Z,94.36
2022-12-26T04:24:37.999Z,94.34
2022-12-26T04:27:26.694Z,94.00
2022-12-26T04:30:12.081Z,94.21
2022-12-26T04:33:06.230Z,95.17
2022-12-26T04:36:04.609Z,94.59
2022-12-26T04:39:05.847Z,94.66
2022-12-26T04:41:53.880Z,94.24
2022-12-26T04:44:24.346Z,94.09
2022-12-26T04:46:56.122Z,94.07
2022-12-26T04:49:41.471Z,94.07
2022-12-26T04:52:11.297Z,94.62
2022-12-26T04:54:38.170Z,94.44
2022-12-26T04:57:05.855Z,93.97
2022-12-26T04:59:41.833Z,93.72
2022-12-26T05:02:27.398Z,94.38
2022-12-26T05:05:15.099Z,94.74
2022-12-26T05:08:00.619Z,94.28
2022-12-26T05:10:32.931Z,93.94
2022-12-26T05:13:01.716Z,94.56
2022-12-26T05:16:06.952Z,94.67
2022-12-26T05:19:02.903Z,94.72
2022-12-26T05:21:59.137Z,94.32
2022-12-26T05:25:19.597Z,94.43
2022-12-26T05:28:08.484Z,93.71
2022-12-26T05:31:16.581Z,94.12
2022-12-26T05:36:54.910Z,93.80
2022-12-26T05:40:06.375Z,93.77
2022-12-26T05:43:10.724Z,93.54
2022-12-26T05:46:15.547Z,93.00
2022-12-26T05:49:02.734Z,92.93
2022-12-26T05:54:48.464Z,92.95
2022-12-26T06:04:26.929Z,92.19
2022-12-26T06:11:05.109Z,92.45
2022-12-26T06:13:40.650Z,92.80
2022-12-26T06:16:13.185Z,92.14
2022-12-26T06:19:40.060Z,91.64
2022-12-26T06:33:28.660Z,92.90
2022-12-26T06:40:39.059Z,92.91
2022-12-26T06:43:20.213Z,92.59
2022-12-26T07:23:39.423Z,92.06
2022-12-26T07:26:49.407Z,91.74
2022-12-26T07:44:16.200Z,91.83
2022-12-26T07:58:54.026Z,92.21
2022-12-26T08:05:02.293Z,92.77
2022-12-26T08:08:03.938Z,93.59
2022-12-26T08:11:47.440Z,94.13
2022-12-26T08:25:07.218Z,95.82
2022-12-26T08:40:12.665Z,95.68
2022-12-26T08:50:41.633Z,95.51
2022-12-26T09:19:48.575Z,95.98
2022-12-26T09:30:15.254Z,96.09
2022-12-26T10:23:50.780Z,93.37
2022-12-26T16:34:00.148Z,97.86
2022-12-26T17:44:12.457Z,88.05
2022-12-26T17:46:47.764Z,87.19
2022-12-26T17:49:28.110Z,87.10
2022-12-26T17:52:01.615Z,87.30
2022-12-26T17:54:34.005Z,86.67
2022-12-26T18:00:22.924Z,85.44
2022-12-26T18:02:58.742Z,84.19
2022-12-26T18:05:31.907Z,84.36
2022-12-26T18:08:04.879Z,83.89
2022-12-26T18:13:51.859Z,85.15
2022-12-26T18:16:30.294Z,85.50
2022-12-26T18:26:21.639Z,86.94
2022-12-26T18:29:12.981Z,86.97
2022-12-26T18:35:03.179Z,86.72
2022-12-26T18:41:46.393Z,86.19
2022-12-26T18:44:30.968Z,85.60
2022-12-26T18:50:21.783Z,85.61
2022-12-26T18:57:53.092Z,85.14
2022-12-26T19:00:43.487Z,84.80
2022-12-26T19:07:17.233Z,84.99
2022-12-26T19:10:03.264Z,84.83
2022-12-26T19:12:48.570Z,84.69
2022-12-26T19:18:57.816Z,85.14
2022-12-26T19:21:28.375Z,84.89
2022-12-26T19:24:06.452Z,84.75
2022-12-26T19:30:39.943Z,85.42
2022-12-26T19:33:19.705Z,85.26
2022-12-26T19:39:10.029Z,84.73
2022-12-26T19:42:05.595Z,85.19
2022-12-26T19:51:04.535Z,85.70
2022-12-26T19:57:56.561Z,86.13
2022-12-26T20:11:15.121Z,85.59
2022-12-26T20:22:17.208Z,81.24
2022-12-26T20:24:48.626Z,80.95
2022-12-26T20:27:15.862Z,80.07
2022-12-26T20:30:41.325Z,79.49
2022-12-26T20:36:46.749Z,79.27
2022-12-26T20:39:59.332Z,78.87
2022-12-26T20:44:00.710Z,79.47
2022-12-26T20:49:34.068Z,79.56
2022-12-26T21:04:44.407Z,78.88
2022-12-26T21:07:41.787Z,77.59
2022-12-26T21:10:21.233Z,77.61
2022-12-26T21:13:09.043Z,76.72
2022-12-26T21:15:44.137Z,75.54
2022-12-26T21:18:25.878Z,74.44
2022-12-26T21:21:16.762Z,74.42
2022-12-26T21:28:24.405Z,74.16
2022-12-26T21:41:05.322Z,77.65
2022-12-26T21:43:55.284Z,77.71
2022-12-26T21:46:47.929Z,77.60
2022-12-26T21:49:49.348Z,76.83
2022-12-26T21:52:21.761Z,76.33
2022-12-26T21:55:35.141Z,76.62
2022-12-26T22:05:42.860Z,73.94
2022-12-26T22:08:12.073Z,73.12
2022-12-26T22:11:42.013Z,76.02
2022-12-26T22:14:29.143Z,73.06
2022-12-26T22:17:04.778Z,73.87
2022-12-26T22:20:19.064Z,73.55
2022-12-26T22:23:31.462Z,74.04
2022-12-26T22:28:52.493Z,73.81
2022-12-26T22:31:46.329Z,73.83
2022-12-26T22:34:23.207Z,74.42
2022-12-26T22:37:23.382Z,74.42
2022-12-26T22:47:10.335Z,74.69
2022-12-26T22:49:52.432Z,75.52
2022-12-26T22:55:24.270Z,75.12
2022-12-26T23:01:48.726Z,73.75
2022-12-26T23:04:20.125Z,72.99
2022-12-26T23:11:04.048Z,71.44
2022-12-26T23:13:57.406Z,73.42
2022-12-26T23:21:38.899Z,70.94
2022-12-26T23:31:10.672Z,69.79
2022-12-26T23:34:07.643Z,69.22
2022-12-26T23:36:38.817Z,69.54
2022-12-26T23:39:08.621Z,68.99
2022-12-26T23:42:17.313Z,69.24
2022-12-26T23:45:08.233Z,69.42
2022-12-26T23:47:39.418Z,68.92
2022-12-26T23:50:41.483Z,69.40
2022-12-26T23:53:37.480Z,68.13
2022-12-26T23:56:40.501Z,68.89
2022-12-26T23:59:31.481Z,69.03
